sensor_id;sensor_type;location;lat;lon;timestamp;P1;durP1;ratioP1;P2;durP2;ratioP2
22320;SDS011;11328;53.928;18.522;2023-11-19T00:00:08;34.42;;;21.02;;
22320;SDS011;11328;53.928;18.522;2023-11-19T00:02:40;36.03;;;22.13;;
22320;SDS011;11328;53.928;18.522;2023-11-19T00:05:09;35.45;;;22.33;;
22320;SDS011;11328;53.928;18.522;2023-11-19T00:07:39;36.45;;;22.55;;
22320;SDS011;11328;53.928;18.522;2023-11-19T00:10:11;37.75;;;22.48;;
22320;SDS011;11328;53.928;18.522;2023-11-19T00:12:41;35.20;;;21.52;;
22320;SDS011;11328;53.928;18.522;2023-11-19T00:15:11;37.65;;;21.83;;
22320;SDS011;11328;53.928;18.522;2023-11-19T00:17:39;40.78;;;23.95;;
22320;SDS011;11328;53.928;18.522;2023-11-19T00:20:12;40.97;;;24.75;;
22320;SDS011;11328;53.928;18.522;2023-11-19T00:22:42;41.45;;;24.63;;
22320;SDS011;11328;53.928;18.522;2023-11-19T00:25:12;42.13;;;25.10;;
22320;SDS011;11328;53.928;18.522;2023-11-19T00:27:40;41.40;;;25.35;;
22320;SDS011;11328;53.928;18.522;2023-11-19T00:30:07;43.85;;;26.02;;
22320;SDS011;11328;53.928;18.522;2023-11-19T00:32:34;47.25;;;26.42;;
22320;SDS011;11328;53.928;18.522;2023-11-19T00:35:02;47.92;;;28.27;;
22320;SDS011;11328;53.928;18.522;2023-11-19T00:37:31;43.53;;;27.23;;
22320;SDS011;11328;53.928;18.522;2023-11-19T00:39:58;47.33;;;28.25;;
22320;SDS011;11328;53.928;18.522;2023-11-19T00:42:25;45.90;;;27.70;;
22320;SDS011;11328;53.928;18.522;2023-11-19T00:44:53;48.45;;;28.63;;
22320;SDS011;11328;53.928;18.522;2023-11-19T00:47:20;49.58;;;27.98;;
22320;SDS011;11328;53.928;18.522;2023-11-19T00:49:47;49.08;;;29.13;;
22320;SDS011;11328;53.928;18.522;2023-11-19T00:52:17;51.00;;;29.63;;
22320;SDS011;11328;53.928;18.522;2023-11-19T00:54:45;47.67;;;28.50;;
22320;SDS011;11328;53.928;18.522;2023-11-19T00:57:12;47.53;;;28.45;;
22320;SDS011;11328;53.928;18.522;2023-11-19T00:59:41;56.55;;;33.30;;
22320;SDS011;11328;53.928;18.522;2023-11-19T01:02:33;56.70;;;35.13;;
22320;SDS011;11328;53.928;18.522;2023-11-19T01:05:01;53.53;;;30.50;;
22320;SDS011;11328;53.928;18.522;2023-11-19T01:07:28;55.05;;;30.95;;
22320;SDS011;11328;53.928;18.522;2023-11-19T01:09:55;50.63;;;31.05;;
22320;SDS011;11328;53.928;18.522;2023-11-19T01:12:22;49.40;;;30.58;;
22320;SDS011;11328;53.928;18.522;2023-11-19T01:14:49;49.85;;;28.42;;
22320;SDS011;11328;53.928;18.522;2023-11-19T01:17:16;52.53;;;29.08;;
22320;SDS011;11328;53.928;18.522;2023-11-19T01:19:43;47.78;;;29.15;;
22320;SDS011;11328;53.928;18.522;2023-11-19T01:22:10;50.70;;;28.85;;
22320;SDS011;11328;53.928;18.522;2023-11-19T01:24:37;46.80;;;26.67;;
22320;SDS011;11328;53.928;18.522;2023-11-19T01:27:04;45.15;;;26.77;;
22320;SDS011;11328;53.928;18.522;2023-11-19T01:29:31;44.47;;;26.75;;
22320;SDS011;11328;53.928;18.522;2023-11-19T01:31:58;47.08;;;27.88;;
22320;SDS011;11328;53.928;18.522;2023-11-19T01:34:25;44.20;;;24.73;;
22320;SDS011;11328;53.928;18.522;2023-11-19T01:36:52;38.33;;;24.10;;
22320;SDS011;11328;53.928;18.522;2023-11-19T01:39:19;41.17;;;24.40;;
22320;SDS011;11328;53.928;18.522;2023-11-19T01:41:47;42.08;;;23.88;;
22320;SDS011;11328;53.928;18.522;2023-11-19T01:44:14;40.35;;;25.08;;
22320;SDS011;11328;53.928;18.522;2023-11-19T01:46:42;40.85;;;24.27;;
22320;SDS011;11328;53.928;18.522;2023-11-19T01:51:42;39.35;;;22.77;;
22320;SDS011;11328;53.928;18.522;2023-11-19T01:54:09;37.63;;;21.63;;
22320;SDS011;11328;53.928;18.522;2023-11-19T01:56:38;39.13;;;23.77;;
22320;SDS011;11328;53.928;18.522;2023-11-19T01:59:07;36.25;;;22.17;;
22320;SDS011;11328;53.928;18.522;2023-11-19T02:01:40;40.35;;;22.98;;
22320;SDS011;11328;53.928;18.522;2023-11-19T02:04:08;40.53;;;22.73;;
22320;SDS011;11328;53.928;18.522;2023-11-19T02:06:39;35.17;;;21.60;;
22320;SDS011;11328;53.928;18.522;2023-11-19T02:09:08;37.83;;;22.42;;
22320;SDS011;11328;53.928;18.522;2023-11-19T02:11:36;37.83;;;21.52;;
22320;SDS011;11328;53.928;18.522;2023-11-19T02:14:06;35.88;;;21.55;;
22320;SDS011;11328;53.928;18.522;2023-11-19T02:16:33;32.70;;;20.42;;
22320;SDS011;11328;53.928;18.522;2023-11-19T02:19:00;37.33;;;20.45;;
22320;SDS011;11328;53.928;18.522;2023-11-19T02:21:28;36.15;;;21.10;;
22320;SDS011;11328;53.928;18.522;2023-11-19T02:23:55;35.35;;;21.52;;
22320;SDS011;11328;53.928;18.522;2023-11-19T02:26:39;35.53;;;21.23;;
22320;SDS011;11328;53.928;18.522;2023-11-19T02:29:18;39.10;;;20.90;;
22320;SDS011;11328;53.928;18.522;2023-11-19T02:31:45;33.90;;;20.30;;
22320;SDS011;11328;53.928;18.522;2023-11-19T02:34:13;34.03;;;21.08;;
22320;SDS011;11328;53.928;18.522;2023-11-19T02:36:40;38.08;;;21.52;;
22320;SDS011;11328;53.928;18.522;2023-11-19T02:39:08;35.20;;;21.10;;
22320;SDS011;11328;53.928;18.522;2023-11-19T02:41:38;38.97;;;22.02;;
22320;SDS011;11328;53.928;18.522;2023-11-19T02:44:06;37.33;;;21.50;;
22320;SDS011;11328;53.928;18.522;2023-11-19T02:46:33;37.90;;;21.48;;
22320;SDS011;11328;53.928;18.522;2023-11-19T02:49:01;37.13;;;21.08;;
22320;SDS011;11328;53.928;18.522;2023-11-19T02:51:28;34.53;;;20.00;;
22320;SDS011;11328;53.928;18.522;2023-11-19T02:53:56;34.55;;;20.40;;
22320;SDS011;11328;53.928;18.522;2023-11-19T02:56:24;36.42;;;19.73;;
22320;SDS011;11328;53.928;18.522;2023-11-19T02:58:52;34.30;;;19.77;;
22320;SDS011;11328;53.928;18.522;2023-11-19T03:01:23;32.15;;;19.67;;
22320;SDS011;11328;53.928;18.522;2023-11-19T03:03:57;32.35;;;19.13;;
22320;SDS011;11328;53.928;18.522;2023-11-19T03:06:28;37.03;;;19.10;;
22320;SDS011;11328;53.928;18.522;2023-11-19T03:08:55;34.08;;;18.85;;
22320;SDS011;11328;53.928;18.522;2023-11-19T03:11:22;32.65;;;18.33;;
22320;SDS011;11328;53.928;18.522;2023-11-19T03:13:51;30.48;;;18.42;;
22320;SDS011;11328;53.928;18.522;2023-11-19T03:16:18;33.00;;;18.98;;
22320;SDS011;11328;53.928;18.522;2023-11-19T03:18:45;31.83;;;18.75;;
22320;SDS011;11328;53.928;18.522;2023-11-19T03:21:12;33.83;;;18.90;;
22320;SDS011;11328;53.928;18.522;2023-11-19T03:23:40;31.45;;;17.65;;
22320;SDS011;11328;53.928;18.522;2023-11-19T03:26:07;29.15;;;17.25;;
22320;SDS011;11328;53.928;18.522;2023-11-19T03:28:35;31.05;;;17.45;;
22320;SDS011;11328;53.928;18.522;2023-11-19T03:31:06;31.38;;;18.50;;
22320;SDS011;11328;53.928;18.522;2023-11-19T03:33:36;29.48;;;17.15;;
22320;SDS011;11328;53.928;18.522;2023-11-19T03:36:04;30.55;;;17.48;;
22320;SDS011;11328;53.928;18.522;2023-11-19T03:38:32;28.42;;;16.80;;
22320;SDS011;11328;53.928;18.522;2023-11-19T03:40:59;31.00;;;18.33;;
22320;SDS011;11328;53.928;18.522;2023-11-19T03:43:26;31.52;;;18.13;;
22320;SDS011;11328;53.928;18.522;2023-11-19T03:45:53;29.50;;;17.23;;
22320;SDS011;11328;53.928;18.522;2023-11-19T03:48:21;33.50;;;18.67;;
22320;SDS011;11328;53.928;18.522;2023-11-19T03:50:48;31.55;;;18.52;;
22320;SDS011;11328;53.928;18.522;2023-11-19T03:53:15;33.30;;;18.55;;
22320;SDS011;11328;53.928;18.522;2023-11-19T03:55:42;33.63;;;19.58;;
22320;SDS011;11328;53.928;18.522;2023-11-19T03:58:09;31.30;;;19.05;;
22320;SDS011;11328;53.928;18.522;2023-11-19T04:00:37;30.15;;;17.95;;
22320;SDS011;11328;53.928;18.522;2023-11-19T04:03:04;32.53;;;19.17;;
22320;SDS011;11328;53.928;18.522;2023-11-19T04:05:31;31.08;;;18.00;;
22320;SDS011;11328;53.928;18.522;2023-11-19T04:07:58;32.50;;;19.15;;
22320;SDS011;11328;53.928;18.522;2023-11-19T04:10:25;30.40;;;18.10;;
22320;SDS011;11328;53.928;18.522;2023-11-19T04:12:53;32.33;;;18.55;;
22320;SDS011;11328;53.928;18.522;2023-11-19T04:15:20;29.35;;;18.60;;
22320;SDS011;11328;53.928;18.522;2023-11-19T04:17:48;32.72;;;18.67;;
22320;SDS011;11328;53.928;18.522;2023-11-19T04:20:15;29.92;;;18.27;;
22320;SDS011;11328;53.928;18.522;2023-11-19T04:22:42;32.45;;;19.42;;
22320;SDS011;11328;53.928;18.522;2023-11-19T04:25:09;32.05;;;20.20;;
22320;SDS011;11328;53.928;18.522;2023-11-19T04:27:37;31.73;;;19.27;;
22320;SDS011;11328;53.928;18.522;2023-11-19T04:30:04;33.78;;;19.95;;
22320;SDS011;11328;53.928;18.522;2023-11-19T04:32:36;38.58;;;20.30;;
22320;SDS011;11328;53.928;18.522;2023-11-19T04:35:04;34.65;;;20.80;;
22320;SDS011;11328;53.928;18.522;2023-11-19T04:37:33;37.50;;;21.35;;
22320;SDS011;11328;53.928;18.522;2023-11-19T04:40:01;36.60;;;20.90;;
22320;SDS011;11328;53.928;18.522;2023-11-19T04:42:30;36.17;;;21.65;;
22320;SDS011;11328;53.928;18.522;2023-11-19T04:44:58;38.13;;;22.63;;
22320;SDS011;11328;53.928;18.522;2023-11-19T04:47:25;38.17;;;23.27;;
22320;SDS011;11328;53.928;18.522;2023-11-19T04:49:52;37.25;;;22.17;;
22320;SDS011;11328;53.928;18.522;2023-11-19T04:52:19;40.15;;;22.63;;
22320;SDS011;11328;53.928;18.522;2023-11-19T04:54:47;40.22;;;22.95;;
22320;SDS011;11328;53.928;18.522;2023-11-19T04:57:14;40.30;;;23.67;;
22320;SDS011;11328;53.928;18.522;2023-11-19T04:59:41;42.80;;;25.35;;
22320;SDS011;11328;53.928;18.522;2023-11-19T05:02:09;42.63;;;24.77;;
22320;SDS011;11328;53.928;18.522;2023-11-19T05:04:36;44.92;;;24.95;;
22320;SDS011;11328;53.928;18.522;2023-11-19T05:07:06;41.50;;;25.23;;
22320;SDS011;11328;53.928;18.522;2023-11-19T05:09:33;44.97;;;26.25;;
22320;SDS011;11328;53.928;18.522;2023-11-19T05:12:00;43.45;;;25.48;;
22320;SDS011;11328;53.928;18.522;2023-11-19T05:14:28;44.17;;;25.48;;
22320;SDS011;11328;53.928;18.522;2023-11-19T05:16:55;42.60;;;25.42;;
22320;SDS011;11328;53.928;18.522;2023-11-19T05:19:23;48.30;;;26.35;;
22320;SDS011;11328;53.928;18.522;2023-11-19T05:21:50;46.53;;;26.35;;
22320;SDS011;11328;53.928;18.522;2023-11-19T05:24:18;44.65;;;25.95;;
22320;SDS011;11328;53.928;18.522;2023-11-19T05:26:45;47.78;;;25.55;;
22320;SDS011;11328;53.928;18.522;2023-11-19T05:29:13;42.63;;;25.75;;
22320;SDS011;11328;53.928;18.522;2023-11-19T05:31:40;42.15;;;25.15;;
22320;SDS011;11328;53.928;18.522;2023-11-19T05:34:10;42.78;;;24.75;;
22320;SDS011;11328;53.928;18.522;2023-11-19T05:36:38;42.00;;;24.70;;
22320;SDS011;11328;53.928;18.522;2023-11-19T05:39:06;42.88;;;24.77;;
22320;SDS011;11328;53.928;18.522;2023-11-19T05:41:33;46.22;;;25.70;;
22320;SDS011;11328;53.928;18.522;2023-11-19T05:44:00;42.00;;;24.17;;
22320;SDS011;11328;53.928;18.522;2023-11-19T05:46:27;43.17;;;23.70;;
22320;SDS011;11328;53.928;18.522;2023-11-19T05:48:55;38.40;;;23.52;;
22320;SDS011;11328;53.928;18.522;2023-11-19T05:51:22;41.22;;;24.15;;
22320;SDS011;11328;53.928;18.522;2023-11-19T05:53:50;44.50;;;24.33;;
22320;SDS011;11328;53.928;18.522;2023-11-19T05:56:17;37.70;;;22.67;;
22320;SDS011;11328;53.928;18.522;2023-11-19T05:58:48;37.65;;;22.42;;
22320;SDS011;11328;53.928;18.522;2023-11-19T06:01:15;41.30;;;22.42;;
22320;SDS011;11328;53.928;18.522;2023-11-19T06:03:43;36.42;;;21.65;;
22320;SDS011;11328;53.928;18.522;2023-11-19T06:06:16;38.67;;;20.83;;
22320;SDS011;11328;53.928;18.522;2023-11-19T06:08:43;36.17;;;21.38;;
22320;SDS011;11328;53.928;18.522;2023-11-19T06:11:10;38.42;;;22.15;;
22320;SDS011;11328;53.928;18.522;2023-11-19T06:13:45;37.50;;;21.55;;
22320;SDS011;11328;53.928;18.522;2023-11-19T06:16:13;35.97;;;21.55;;
22320;SDS011;11328;53.928;18.522;2023-11-19T06:18:40;35.70;;;21.58;;
22320;SDS011;11328;53.928;18.522;2023-11-19T06:21:08;37.35;;;20.73;;
22320;SDS011;11328;53.928;18.522;2023-11-19T06:23:35;36.03;;;20.85;;
22320;SDS011;11328;53.928;18.522;2023-11-19T06:26:02;37.03;;;21.33;;
22320;SDS011;11328;53.928;18.522;2023-11-19T06:28:29;33.05;;;20.77;;
22320;SDS011;11328;53.928;18.522;2023-11-19T06:30:57;33.97;;;19.98;;
22320;SDS011;11328;53.928;18.522;2023-11-19T06:33:24;34.20;;;20.05;;
22320;SDS011;11328;53.928;18.522;2023-11-19T06:35:51;34.80;;;20.67;;
22320;SDS011;11328;53.928;18.522;2023-11-19T06:38:18;36.60;;;20.63;;
22320;SDS011;11328;53.928;18.522;2023-11-19T06:40:45;35.53;;;20.75;;
22320;SDS011;11328;53.928;18.522;2023-11-19T06:43:14;36.28;;;21.67;;
22320;SDS011;11328;53.928;18.522;2023-11-19T06:45:41;35.03;;;20.63;;
22320;SDS011;11328;53.928;18.522;2023-11-19T06:48:08;38.38;;;22.08;;
22320;SDS011;11328;53.928;18.522;2023-11-19T06:50:35;36.13;;;20.90;;
22320;SDS011;11328;53.928;18.522;2023-11-19T06:53:03;32.20;;;19.48;;
22320;SDS011;11328;53.928;18.522;2023-11-19T06:55:32;33.90;;;19.67;;
22320;SDS011;11328;53.928;18.522;2023-11-19T06:58:00;33.50;;;19.52;;
22320;SDS011;11328;53.928;18.522;2023-11-19T07:00:28;30.38;;;18.73;;
22320;SDS011;11328;53.928;18.522;2023-11-19T07:02:59;31.35;;;18.67;;
22320;SDS011;11328;53.928;18.522;2023-11-19T07:05:26;31.88;;;18.40;;
22320;SDS011;11328;53.928;18.522;2023-11-19T07:07:54;31.02;;;18.35;;
22320;SDS011;11328;53.928;18.522;2023-11-19T07:10:22;31.42;;;17.85;;
22320;SDS011;11328;53.928;18.522;2023-11-19T07:12:49;29.75;;;18.05;;
22320;SDS011;11328;53.928;18.522;2023-11-19T07:15:16;26.83;;;17.10;;
22320;SDS011;11328;53.928;18.522;2023-11-19T07:17:44;30.17;;;17.27;;
22320;SDS011;11328;53.928;18.522;2023-11-19T07:20:11;27.55;;;16.63;;
22320;SDS011;11328;53.928;18.522;2023-11-19T07:22:45;27.73;;;16.92;;
22320;SDS011;11328;53.928;18.522;2023-11-19T07:25:15;28.83;;;16.92;;
22320;SDS011;11328;53.928;18.522;2023-11-19T07:27:42;30.30;;;17.52;;
22320;SDS011;11328;53.928;18.522;2023-11-19T07:30:09;27.50;;;16.75;;
22320;SDS011;11328;53.928;18.522;2023-11-19T07:32:36;28.30;;;16.10;;
22320;SDS011;11328;53.928;18.522;2023-11-19T07:35:05;26.13;;;16.52;;
22320;SDS011;11328;53.928;18.522;2023-11-19T07:37:33;31.17;;;17.73;;
22320;SDS011;11328;53.928;18.522;2023-11-19T07:40:00;32.08;;;19.10;;
22320;SDS011;11328;53.928;18.522;2023-11-19T07:42:28;33.15;;;18.35;;
22320;SDS011;11328;53.928;18.522;2023-11-19T07:44:55;31.83;;;18.88;;
22320;SDS011;11328;53.928;18.522;2023-11-19T07:47:23;34.22;;;19.52;;
22320;SDS011;11328;53.928;18.522;2023-11-19T07:49:50;34.75;;;19.35;;
22320;SDS011;11328;53.928;18.522;2023-11-19T07:52:17;37.10;;;19.98;;
22320;SDS011;11328;53.928;18.522;2023-11-19T07:54:47;33.80;;;19.70;;
22320;SDS011;11328;53.928;18.522;2023-11-19T07:57:15;32.45;;;18.60;;
22320;SDS011;11328;53.928;18.522;2023-11-19T07:59:42;35.05;;;20.75;;
22320;SDS011;11328;53.928;18.522;2023-11-19T08:02:09;34.97;;;20.40;;
22320;SDS011;11328;53.928;18.522;2023-11-19T08:04:36;32.60;;;20.02;;
22320;SDS011;11328;53.928;18.522;2023-11-19T08:07:06;32.00;;;18.65;;
22320;SDS011;11328;53.928;18.522;2023-11-19T08:09:33;33.72;;;18.88;;
22320;SDS011;11328;53.928;18.522;2023-11-19T08:12:00;31.20;;;19.02;;
22320;SDS011;11328;53.928;18.522;2023-11-19T08:14:27;34.90;;;20.05;;
22320;SDS011;11328;53.928;18.522;2023-11-19T08:16:56;34.50;;;20.23;;
22320;SDS011;11328;53.928;18.522;2023-11-19T08:19:23;35.45;;;19.67;;
22320;SDS011;11328;53.928;18.522;2023-11-19T08:21:50;32.25;;;20.02;;
22320;SDS011;11328;53.928;18.522;2023-11-19T08:24:18;32.58;;;20.20;;
22320;SDS011;11328;53.928;18.522;2023-11-19T08:26:45;33.45;;;19.67;;
22320;SDS011;11328;53.928;18.522;2023-11-19T08:29:28;32.45;;;19.35;;
22320;SDS011;11328;53.928;18.522;2023-11-19T08:31:55;35.72;;;19.90;;
22320;SDS011;11328;53.928;18.522;2023-11-19T08:34:22;33.85;;;20.33;;
22320;SDS011;11328;53.928;18.522;2023-11-19T08:36:52;32.90;;;19.85;;
22320;SDS011;11328;53.928;18.522;2023-11-19T08:39:19;30.80;;;19.75;;
22320;SDS011;11328;53.928;18.522;2023-11-19T08:41:50;47.45;;;28.65;;
22320;SDS011;11328;53.928;18.522;2023-11-19T08:44:17;38.17;;;23.48;;
22320;SDS011;11328;53.928;18.522;2023-11-19T08:46:47;34.22;;;20.52;;
22320;SDS011;11328;53.928;18.522;2023-11-19T08:49:17;38.35;;;21.98;;
22320;SDS011;11328;53.928;18.522;2023-11-19T08:51:44;35.00;;;21.98;;
22320;SDS011;11328;53.928;18.522;2023-11-19T08:54:12;34.92;;;21.73;;
22320;SDS011;11328;53.928;18.522;2023-11-19T08:56:40;33.97;;;21.23;;
22320;SDS011;11328;53.928;18.522;2023-11-19T08:59:07;37.83;;;23.17;;
22320;SDS011;11328;53.928;18.522;2023-11-19T09:01:35;39.97;;;23.77;;
22320;SDS011;11328;53.928;18.522;2023-11-19T09:04:02;42.25;;;23.77;;
22320;SDS011;11328;53.928;18.522;2023-11-19T09:06:31;39.20;;;24.38;;
22320;SDS011;11328;53.928;18.522;2023-11-19T09:08:58;39.95;;;22.83;;
22320;SDS011;11328;53.928;18.522;2023-11-19T09:11:29;38.70;;;23.40;;
22320;SDS011;11328;53.928;18.522;2023-11-19T09:13:56;39.42;;;23.90;;
22320;SDS011;11328;53.928;18.522;2023-11-19T09:16:24;39.47;;;23.38;;
22320;SDS011;11328;53.928;18.522;2023-11-19T09:18:52;43.30;;;24.92;;
22320;SDS011;11328;53.928;18.522;2023-11-19T09:21:19;40.75;;;23.85;;
22320;SDS011;11328;53.928;18.522;2023-11-19T09:23:46;40.60;;;24.08;;
22320;SDS011;11328;53.928;18.522;2023-11-19T09:26:15;40.17;;;23.92;;
22320;SDS011;11328;53.928;18.522;2023-11-19T09:28:42;40.22;;;24.85;;
22320;SDS011;11328;53.928;18.522;2023-11-19T09:31:13;45.70;;;26.73;;
22320;SDS011;11328;53.928;18.522;2023-11-19T09:33:44;43.55;;;24.80;;
22320;SDS011;11328;53.928;18.522;2023-11-19T09:36:12;43.25;;;24.75;;
22320;SDS011;11328;53.928;18.522;2023-11-19T09:38:43;44.35;;;25.02;;
22320;SDS011;11328;53.928;18.522;2023-11-19T09:41:11;42.95;;;25.65;;
22320;SDS011;11328;53.928;18.522;2023-11-19T09:43:40;43.47;;;24.88;;
22320;SDS011;11328;53.928;18.522;2023-11-19T09:46:12;45.88;;;26.35;;
22320;SDS011;11328;53.928;18.522;2023-11-19T09:48:42;45.60;;;25.38;;
22320;SDS011;11328;53.928;18.522;2023-11-19T09:51:11;40.95;;;24.13;;
22320;SDS011;11328;53.928;18.522;2023-11-19T09:53:38;44.97;;;25.70;;
22320;SDS011;11328;53.928;18.522;2023-11-19T09:56:06;51.05;;;27.80;;
22320;SDS011;11328;53.928;18.522;2023-11-19T09:58:34;47.30;;;26.45;;
22320;SDS011;11328;53.928;18.522;2023-11-19T10:01:01;42.22;;;24.45;;
22320;SDS011;11328;53.928;18.522;2023-11-19T10:03:41;45.40;;;26.10;;
22320;SDS011;11328;53.928;18.522;2023-11-19T10:06:12;45.17;;;25.45;;
22320;SDS011;11328;53.928;18.522;2023-11-19T10:08:41;48.30;;;25.52;;
22320;SDS011;11328;53.928;18.522;2023-11-19T10:11:10;43.90;;;25.13;;
22320;SDS011;11328;53.928;18.522;2023-11-19T10:13:39;48.88;;;26.05;;
22320;SDS011;11328;53.928;18.522;2023-11-19T10:16:09;42.92;;;24.55;;
22320;SDS011;11328;53.928;18.522;2023-11-19T10:18:49;45.05;;;25.77;;
22320;SDS011;11328;53.928;18.522;2023-11-19T10:21:18;42.58;;;24.42;;
22320;SDS011;11328;53.928;18.522;2023-11-19T10:23:52;46.85;;;25.80;;
22320;SDS011;11328;53.928;18.522;2023-11-19T10:26:23;45.95;;;24.90;;
22320;SDS011;11328;53.928;18.522;2023-11-19T10:28:50;46.97;;;26.30;;
22320;SDS011;11328;53.928;18.522;2023-11-19T10:31:18;45.78;;;25.30;;
22320;SDS011;11328;53.928;18.522;2023-11-19T10:33:56;43.60;;;25.42;;
22320;SDS011;11328;53.928;18.522;2023-11-19T10:36:26;53.50;;;27.00;;
22320;SDS011;11328;53.928;18.522;2023-11-19T10:39:07;49.10;;;26.75;;
22320;SDS011;11328;53.928;18.522;2023-11-19T10:41:35;48.33;;;26.92;;
22320;SDS011;11328;53.928;18.522;2023-11-19T10:44:03;51.08;;;27.23;;
22320;SDS011;11328;53.928;18.522;2023-11-19T10:46:38;49.08;;;26.10;;
22320;SDS011;11328;53.928;18.522;2023-11-19T10:49:07;49.42;;;26.13;;
22320;SDS011;11328;53.928;18.522;2023-11-19T10:51:35;49.38;;;26.02;;
22320;SDS011;11328;53.928;18.522;2023-11-19T10:54:05;52.10;;;27.50;;
22320;SDS011;11328;53.928;18.522;2023-11-19T10:56:33;49.40;;;26.67;;
22320;SDS011;11328;53.928;18.522;2023-11-19T10:59:02;54.13;;;30.63;;
22320;SDS011;11328;53.928;18.522;2023-11-19T11:01:47;52.05;;;28.63;;
22320;SDS011;11328;53.928;18.522;2023-11-19T11:04:19;48.47;;;27.73;;
22320;SDS011;11328;53.928;18.522;2023-11-19T11:06:53;47.30;;;26.70;;
22320;SDS011;11328;53.928;18.522;2023-11-19T11:11:56;46.92;;;25.92;;
22320;SDS011;11328;53.928;18.522;2023-11-19T11:14:25;52.45;;;26.95;;
22320;SDS011;11328;53.928;18.522;2023-11-19T11:16:55;52.03;;;28.88;;
22320;SDS011;11328;53.928;18.522;2023-11-19T11:19:24;51.95;;;27.30;;
22320;SDS011;11328;53.928;18.522;2023-11-19T11:21:52;52.35;;;28.75;;
22320;SDS011;11328;53.928;18.522;2023-11-19T11:40:16;50.38;;;27.58;;
22320;SDS011;11328;53.928;18.522;2023-11-19T11:42:46;52.95;;;28.70;;
22320;SDS011;11328;53.928;18.522;2023-11-19T11:45:17;59.30;;;29.80;;
22320;SDS011;11328;53.928;18.522;2023-11-19T11:48:06;56.75;;;28.88;;
22320;SDS011;11328;53.928;18.522;2023-11-19T11:50:52;52.65;;;28.08;;
22320;SDS011;11328;53.928;18.522;2023-11-19T11:53:23;51.13;;;28.00;;
22320;SDS011;11328;53.928;18.522;2023-11-19T11:55:53;54.30;;;28.38;;
22320;SDS011;11328;53.928;18.522;2023-11-19T11:58:25;50.25;;;28.63;;
22320;SDS011;11328;53.928;18.522;2023-11-19T12:01:01;53.55;;;28.42;;
22320;SDS011;11328;53.928;18.522;2023-11-19T12:03:32;54.88;;;28.20;;
22320;SDS011;11328;53.928;18.522;2023-11-19T12:06:00;53.28;;;28.98;;
22320;SDS011;11328;53.928;18.522;2023-11-19T12:08:28;54.65;;;28.25;;
22320;SDS011;11328;53.928;18.522;2023-11-19T12:10:57;52.42;;;27.90;;
22320;SDS011;11328;53.928;18.522;2023-11-19T12:13:29;55.10;;;28.60;;
22320;SDS011;11328;53.928;18.522;2023-11-19T12:16:30;53.10;;;28.08;;
22320;SDS011;11328;53.928;18.522;2023-11-19T12:19:02;55.28;;;29.25;;
22320;SDS011;11328;53.928;18.522;2023-11-19T12:21:33;54.33;;;28.38;;
22320;SDS011;11328;53.928;18.522;2023-11-19T12:24:03;57.30;;;29.40;;
22320;SDS011;11328;53.928;18.522;2023-11-19T12:26:34;52.38;;;27.85;;
22320;SDS011;11328;53.928;18.522;2023-11-19T12:29:04;54.55;;;29.23;;
22320;SDS011;11328;53.928;18.522;2023-11-19T12:31:34;54.58;;;28.63;;
22320;SDS011;11328;53.928;18.522;2023-11-19T12:34:06;54.78;;;29.05;;
22320;SDS011;11328;53.928;18.522;2023-11-19T12:36:35;54.93;;;28.40;;
22320;SDS011;11328;53.928;18.522;2023-11-19T12:39:02;57.08;;;30.42;;
22320;SDS011;11328;53.928;18.522;2023-11-19T12:41:30;59.28;;;28.02;;
22320;SDS011;11328;53.928;18.522;2023-11-19T12:44:10;56.92;;;28.60;;
22320;SDS011;11328;53.928;18.522;2023-11-19T12:46:38;53.85;;;28.23;;
22320;SDS011;11328;53.928;18.522;2023-11-19T12:49:06;54.38;;;27.88;;
22320;SDS011;11328;53.928;18.522;2023-11-19T12:51:33;56.70;;;29.27;;
22320;SDS011;11328;53.928;18.522;2023-11-19T12:54:00;57.13;;;28.90;;
22320;SDS011;11328;53.928;18.522;2023-11-19T12:56:27;61.83;;;30.17;;
22320;SDS011;11328;53.928;18.522;2023-11-19T12:58:56;61.50;;;31.85;;
22320;SDS011;11328;53.928;18.522;2023-11-19T13:01:23;62.08;;;32.28;;
22320;SDS011;11328;53.928;18.522;2023-11-19T13:03:50;57.80;;;30.02;;
22320;SDS011;11328;53.928;18.522;2023-11-19T13:06:18;63.00;;;33.38;;
22320;SDS011;11328;53.928;18.522;2023-11-19T13:08:48;58.85;;;30.58;;
22320;SDS011;11328;53.928;18.522;2023-11-19T13:11:32;59.03;;;30.45;;
22320;SDS011;11328;53.928;18.522;2023-11-19T13:14:03;63.15;;;30.98;;
22320;SDS011;11328;53.928;18.522;2023-11-19T13:16:31;62.25;;;30.58;;
22320;SDS011;11328;53.928;18.522;2023-11-19T13:19:02;63.10;;;30.95;;
22320;SDS011;11328;53.928;18.522;2023-11-19T13:21:29;61.58;;;31.23;;
22320;SDS011;11328;53.928;18.522;2023-11-19T13:23:57;84.95;;;46.60;;
22320;SDS011;11328;53.928;18.522;2023-11-19T13:26:25;68.80;;;34.72;;
22320;SDS011;11328;53.928;18.522;2023-11-19T13:28:52;63.83;;;33.55;;
22320;SDS011;11328;53.928;18.522;2023-11-19T13:31:19;62.53;;;31.10;;
22320;SDS011;11328;53.928;18.522;2023-11-19T13:33:46;72.00;;;37.92;;
22320;SDS011;11328;53.928;18.522;2023-11-19T13:36:14;63.90;;;32.05;;
22320;SDS011;11328;53.928;18.522;2023-11-19T13:38:42;59.45;;;30.85;;
22320;SDS011;11328;53.928;18.522;2023-11-19T13:41:13;66.03;;;31.77;;
22320;SDS011;11328;53.928;18.522;2023-11-19T13:43:41;71.68;;;34.95;;
22320;SDS011;11328;53.928;18.522;2023-11-19T13:46:09;69.05;;;35.05;;
22320;SDS011;11328;53.928;18.522;2023-11-19T13:48:37;68.93;;;35.95;;
22320;SDS011;11328;53.928;18.522;2023-11-19T13:51:06;63.67;;;32.85;;
22320;SDS011;11328;53.928;18.522;2023-11-19T13:53:33;64.45;;;33.35;;
22320;SDS011;11328;53.928;18.522;2023-11-19T13:56:03;61.85;;;31.08;;
22320;SDS011;11328;53.928;18.522;2023-11-19T13:58:31;62.88;;;32.58;;
22320;SDS011;11328;53.928;18.522;2023-11-19T14:00:59;63.05;;;31.10;;
22320;SDS011;11328;53.928;18.522;2023-11-19T14:03:26;68.38;;;32.78;;
22320;SDS011;11328;53.928;18.522;2023-11-19T14:05:53;64.60;;;31.75;;
22320;SDS011;11328;53.928;18.522;2023-11-19T14:08:21;65.07;;;34.38;;
22320;SDS011;11328;53.928;18.522;2023-11-19T14:10:51;64.10;;;31.60;;
22320;SDS011;11328;53.928;18.522;2023-11-19T14:13:22;64.53;;;31.95;;
22320;SDS011;11328;53.928;18.522;2023-11-19T14:15:50;61.90;;;31.40;;
22320;SDS011;11328;53.928;18.522;2023-11-19T14:18:18;61.85;;;30.33;;
22320;SDS011;11328;53.928;18.522;2023-11-19T14:20:45;61.42;;;31.63;;
22320;SDS011;11328;53.928;18.522;2023-11-19T14:23:12;66.90;;;33.03;;
22320;SDS011;11328;53.928;18.522;2023-11-19T14:25:39;61.10;;;30.73;;
22320;SDS011;11328;53.928;18.522;2023-11-19T14:28:06;65.75;;;32.78;;
22320;SDS011;11328;53.928;18.522;2023-11-19T14:30:34;66.53;;;33.20;;
22320;SDS011;11328;53.928;18.522;2023-11-19T14:33:01;58.78;;;31.23;;
22320;SDS011;11328;53.928;18.522;2023-11-19T14:35:30;61.40;;;32.90;;
22320;SDS011;11328;53.928;18.522;2023-11-19T14:37:59;66.18;;;31.95;;